Time;durP1;ratioP1;P1;durP2;ratioP2;P2;SDS_P1;SDS_P2;PMS_P1;PMS_P2;Temp;Humidity;BMP_temperature;BMP_pressure;BME280_temperature;BME280_humidity;BME280_pressure;Samples;Min_cycle;Max_cycle;Signal;HPM_P1;HPM_P2
2022/12/16 00:01:23;;;;;;;15.73;12.90;;;;;;;42.02;36.83;100866.09;5064813;28;20552;-76
2022/12/16 00:03:53;;;;;;;32.40;15.77;;;;;;;41.93;37.17;100863.47;5063030;28;20434;-73
2022/12/16 00:06:21;;;;;;;24.80;13.63;;;;;;;41.99;37.22;100856.69;5071074;28;20532;-73
2022/12/16 00:08:47;;;;;;;39.90;15.37;;;;;;;41.89;37.25;100846.19;5062253;28;20419;-73
2022/12/16 00:11:13;;;;;;;22.87;14.83;;;;;;;42.05;37.08;100840.88;5055668;28;20477;-74
2022/12/16 00:13:40;;;;;;;33.03;19.03;;;;;;;41.86;37.27;100838.66;5055416;28;20430;-71
2022/12/16 00:16:09;;;;;;;30.67;18.13;;;;;;;41.54;37.35;100840.19;5057630;28;20417;-73
2022/12/16 00:18:34;;;;;;;20.83;14.43;;;;;;;41.52;37.69;100843.25;5060858;28;20414;-72
2022/12/16 00:21:01;;;;;;;29.00;15.87;;;;;;;41.69;37.77;100841.53;5056029;28;20806;-73
2022/12/16 00:23:28;;;;;;;36.03;16.20;;;;;;;41.25;38.04;100838.25;5057039;28;20429;-73
2022/12/16 00:25:54;;;;;;;27.13;15.60;;;;;;;41.25;38.47;100828.19;5060687;28;21001;-73
2022/12/16 00:28:21;;;;;;;26.40;13.90;;;;;;;41.57;37.65;100823.19;5063898;28;20977;-73
2022/12/16 00:30:49;;;;;;;30.00;16.93;;;;;;;41.05;38.43;100831.66;5060405;28;20508;-73
2022/12/16 00:33:15;;;;;;;25.43;14.93;;;;;;;40.80;39.14;100825.19;5068776;28;20487;-73
2022/12/16 00:35:43;;;;;;;41.03;15.73;;;;;;;40.87;38.77;100825.47;5067224;28;20467;-71
2022/12/16 00:38:09;;;;;;;32.57;13.73;;;;;;;40.96;38.50;100815.41;5069289;28;21129;-72
2022/12/16 00:40:35;;;;;;;32.57;15.67;;;;;;;40.81;38.68;100818.63;5071675;28;20422;-71
2022/12/16 00:43:01;;;;;;;35.20;18.70;;;;;;;40.84;38.99;100807.13;5069567;28;20465;-71
2022/12/16 00:45:29;;;;;;;31.30;15.80;;;;;;;41.17;38.21;100809.97;5056906;28;20476;-70
2022/12/16 00:47:55;;;;;;;34.27;16.77;;;;;;;41.13;38.22;100803.63;5071055;28;20518;-72
2022/12/16 00:50:21;;;;;;;36.10;15.90;;;;;;;40.74;38.63;100802.03;5066584;28;20521;-72
2022/12/16 00:52:47;;;;;;;35.43;19.73;;;;;;;40.94;38.36;100784.97;5068031;28;20852;-73
2022/12/16 00:55:14;;;;;;;27.10;15.03;;;;;;;41.19;38.02;100785.16;5053913;28;20458;-73
2022/12/16 00:57:40;;;;;;;28.07;15.13;;;;;;;41.14;37.99;100788.88;5062168;28;20426;-74
2022/12/16 01:00:11;;;;;;;30.20;17.13;;;;;;;41.08;38.12;100782.84;5050064;28;20426;-73
2022/12/16 01:02:39;;;;;;;31.60;16.83;;;;;;;41.05;38.01;100778.03;5068629;28;20501;-72
2022/12/16 01:05:06;;;;;;;28.43;14.77;;;;;;;41.23;37.63;100776.00;5071225;28;20802;-72
2022/12/16 01:07:32;;;;;;;27.50;15.30;;;;;;;41.16;37.88;100785.81;5070976;28;20972;-73
2022/12/16 01:09:58;;;;;;;29.83;15.67;;;;;;;41.26;37.96;100775.34;5063901;28;20411;-71
2022/12/16 01:12:24;;;;;;;36.87;16.40;;;;;;;41.43;37.06;100773.63;5069199;28;20409;-70
2022/12/16 01:14:50;;;;;;;24.53;15.43;;;;;;;41.46;37.14;100783.88;5072053;28;20468;-70
2022/12/16 01:17:16;;;;;;;23.73;14.33;;;;;;;41.32;37.63;100773.22;5071992;28;20425;-71
2022/12/16 01:19:42;;;;;;;37.13;16.03;;;;;;;41.45;37.70;100768.69;5071720;28;20517;-70
2022/12/16 01:22:08;;;;;;;29.13;17.23;;;;;;;41.48;37.19;100770.72;5071934;28;20488;-71
2022/12/16 01:24:34;;;;;;;25.83;13.87;;;;;;;41.45;37.41;100765.97;5069973;28;20464;-71
2022/12/16 01:27:00;;;;;;;30.83;15.87;;;;;;;41.08;38.01;100763.00;5071771;28;20656;-70
2022/12/16 01:29:26;;;;;;;40.23;16.43;;;;;;;41.29;37.67;100766.50;5071762;28;20453;-70
2022/12/16 01:31:52;;;;;;;32.60;14.13;;;;;;;41.32;37.47;100773.22;5071967;28;20426;-70
2022/12/16 01:34:18;;;;;;;36.67;18.00;;;;;;;41.20;37.57;100775.88;5073013;28;20810;-73
2022/12/16 01:36:44;;;;;;;32.73;15.10;;;;;;;41.28;37.73;100769.56;5071404;28;20481;-70
2022/12/16 01:39:10;;;;;;;26.77;15.07;;;;;;;41.30;37.83;100757.22;5071606;28;20512;-70
2022/12/16 01:41:37;;;;;;;33.60;15.33;;;;;;;41.07;38.31;100750.53;5070620;28;20430;-70
2022/12/16 01:44:15;;;;;;;25.70;15.53;;;;;;;40.83;37.70;100761.22;5073052;28;20837;-70
2022/12/16 01:46:42;;;;;;;34.53;13.53;;;;;;;40.83;38.27;100755.78;5073014;28;20425;-71
2022/12/16 01:49:26;;;;;;;22.23;13.43;;;;;;;39.95;39.79;100752.50;5065267;28;20433;-73
2022/12/16 01:51:57;;;;;;;27.77;14.93;;;;;;;40.74;38.16;100748.44;5066198;28;21025;-72
2022/12/16 01:54:55;;;;;;;32.03;15.83;;;;;;;40.79;38.03;100756.41;5071311;28;20461;-72
2022/12/16 01:57:37;;;;;;;30.80;12.67;;;;;;;41.09;38.12;100764.59;5047284;28;20517;-70
2022/12/16 02:00:05;;;;;;;29.67;16.03;;;;;;;40.38;38.71;100754.31;5063512;28;21010;-72
2022/12/16 02:02:32;;;;;;;34.67;20.27;;;;;;;40.80;38.24;100749.03;5066851;28;20415;-72
2022/12/16 02:07:42;;;;;;;36.13;16.00;;;;;;;40.52;38.33;100741.38;5072600;28;20544;-73
2022/12/16 02:10:10;;;;;;;25.07;15.03;;;;;;;40.58;38.28;100744.69;5071165;28;20956;-71
2022/12/16 02:13:14;;;;;;;38.17;15.60;;;;;;;40.86;37.71;100749.66;5070187;28;20430;-72
2022/12/16 02:15:49;;;;;;;26.00;15.73;;;;;;;40.63;38.35;100739.06;5027122;28;20481;-73
2022/12/16 02:18:25;;;;;;;28.70;14.83;;;;;;;41.08;37.46;100735.78;5071090;28;20824;-72
2022/12/16 02:21:16;;;;;;;32.67;17.10;;;;;;;41.04;37.67;100732.13;5070906;28;20433;-72
2022/12/16 02:24:01;;;;;;;24.80;14.00;;;;;;;40.96;37.38;100733.00;5070960;28;20555;-73
2022/12/16 02:27:02;;;;;;;30.17;15.60;;;;;;;40.22;38.05;100728.81;5070965;28;20417;-72
2022/12/16 02:29:57;;;;;;;27.90;16.20;;;;;;;40.93;37.42;100736.34;5069670;28;20426;-70
2022/12/16 02:32:33;;;;;;;38.13;16.90;;;;;;;40.48;37.98;100729.53;5070809;28;20418;-70
2022/12/16 02:35:19;;;;;;;28.73;12.60;;;;;;;40.55;38.03;100734.47;5059117;28;20481;-70
2022/12/16 02:38:07;;;;;;;31.37;15.07;;;;;;;40.92;37.25;100742.94;5074093;28;20451;-73
2022/12/16 02:40:53;;;;;;;23.13;14.63;;;;;;;40.85;37.65;100737.19;5073805;28;20429;-72
2022/12/16 02:43:33;;;;;;;25.73;16.60;;;;;;;40.76;37.63;100732.59;5073818;28;20412;-73
2022/12/16 02:46:00;;;;;;;30.97;13.03;;;;;;;41.06;37.17;100730.66;5062235;28;20462;-72
2022/12/16 02:48:26;;;;;;;29.87;15.60;;;;;;;40.69;37.55;100728.78;5072882;28;20463;-71
2022/12/16 02:50:53;;;;;;;29.83;13.43;;;;;;;41.06;37.31;100719.75;5074115;28;20421;-71
2022/12/16 02:53:19;;;;;;;24.97;15.37;;;;;;;40.67;37.61;100723.69;5064492;28;20516;-71
2022/12/16 02:56:39;;;;;;;28.53;16.60;;;;;;;41.06;37.38;100727.13;5064996;28;20471;-70
2022/12/16 02:59:26;;;;;;;27.67;13.40;;;;;;;41.12;37.44;100731.25;4974208;28;20421;-71
2022/12/16 03:02:05;;;;;;;34.10;13.23;;;;;;;40.28;39.22;100728.31;4990562;28;20417;-71
2022/12/16 03:04:39;;;;;;;19.63;12.80;;;;;;;40.75;38.05;100735.63;5042126;28;20432;-71
2022/12/16 03:07:10;;;;;;;28.57;15.03;;;;;;;40.68;38.17;100736.16;5074066;28;20500;-71
2022/12/16 03:09:38;;;;;;;30.10;19.07;;;;;;;40.86;37.50;100734.13;5060474;28;20472;-71
2022/12/16 03:12:10;;;;;;;24.67;15.27;;;;;;;41.10;37.16;100738.97;5060708;28;20899;-71
2022/12/16 03:14:41;;;;;;;27.00;17.57;;;;;;;40.65;38.01;100734.09;5073400;28;20972;-71
2022/12/16 03:17:08;;;;;;;37.20;18.47;;;;;;;40.72;38.11;100734.38;5092110;28;20413;-73
2022/12/16 03:19:38;;;;;;;39.07;16.83;;;;;;;40.57;38.46;100742.28;5073698;28;20411;-72
2022/12/16 03:22:28;;;;;;;31.77;18.10;;;;;;;40.59;38.56;100732.69;5072713;28;20429;-70
2022/12/16 03:24:54;;;;;;;29.63;17.83;;;;;;;40.65;38.46;100731.38;5060051;28;20435;-70
2022/12/16 03:27:38;;;;;;;30.73;20.90;;;;;;;40.27;39.04;100734.88;5072083;28;20445;-72
2022/12/16 03:30:18;;;;;;;37.97;20.40;;;;;;;40.35;38.82;100729.75;5091578;28;20406;-70
2022/12/16 03:32:49;;;;;;;28.80;17.97;;;;;;;40.61;38.75;100738.59;5073001;28;20480;-70
2022/12/16 03:35:19;;;;;;;30.63;20.30;;;;;;;39.45;40.56;100719.63;5058933;28;20473;-71
2022/12/16 03:37:47;;;;;;;52.87;22.00;;;;;;;39.30;40.97;100737.22;5071820;28;20818;-71
2022/12/16 03:40:14;;;;;;;34.13;20.50;;;;;;;39.76;40.01;100725.69;5071363;28;20433;-70
2022/12/16 03:42:42;;;;;;;33.00;18.33;;;;;;;39.63;40.43;100726.69;5070292;28;20802;-71
2022/12/16 03:45:15;;;;;;;37.10;21.17;;;;;;;40.15;39.45;100728.53;5070163;28;20410;-71
2022/12/16 03:47:47;;;;;;;41.27;19.87;;;;;;;40.01;39.75;100726.75;5070452;28;20416;-72
2022/12/16 03:50:13;;;;;;;32.90;20.80;;;;;;;40.31;39.63;100726.06;5072572;28;20426;-70
2022/12/16 03:52:39;;;;;;;30.83;20.10;;;;;;;40.54;38.89;100722.78;5073445;28;20486;-73
2022/12/16 03:55:05;;;;;;;29.87;22.40;;;;;;;40.36;38.74;100718.53;5073938;28;20458;-71
2022/12/16 03:57:30;;;;;;;42.33;21.53;;;;;;;40.50;38.64;100713.69;5073275;28;20421;-73
2022/12/16 03:59:56;;;;;;;38.70;24.80;;;;;;;40.02;39.70;100711.25;5073501;28;20414;-73
2022/12/16 04:02:22;;;;;;;52.20;26.20;;;;;;;39.96;39.54;100707.94;5073160;28;20198;-73
2022/12/16 04:04:48;;;;;;;41.63;23.53;;;;;;;39.68;40.09;100710.22;5073339;28;20929;-72
2022/12/16 04:07:20;;;;;;;44.73;23.03;;;;;;;39.90;40.19;100713.84;5073582;28;20424;-70
2022/12/16 04:09:48;;;;;;;41.93;22.07;;;;;;;40.10;39.28;100715.91;5073793;28;20434;-70
2022/12/16 04:26:09;;;;;;;31.70;23.30;;;;;;;40.06;39.79;100720.41;5056867;28;20425;-70
2022/12/16 04:28:35;;;;;;;38.70;22.30;;;;;;;39.74;40.24;100730.66;5073011;28;20418;-70
2022/12/16 04:31:02;;;;;;;44.23;21.00;;;;;;;39.64;40.08;100731.00;5072829;28;20433;-70
